Time;durP1;ratioP1;P1;durP2;ratioP2;P2;SDS_P1;SDS_P2;PMS_P1;PMS_P2;Temp;Humidity;BMP_temperature;BMP_pressure;BME280_temperature;BME280_humidity;BME280_pressure;Samples;Min_cycle;Max_cycle;Signal;HPM_P1;HPM_P2
2021/09/06 00:02:00;;;;;;;35.05;23.73;;;;;;;13.08;97.88;101822.19;5004989;28;20049;-78
2021/09/06 00:04:27;;;;;;;34.47;21.98;;;;;;;13.06;97.79;101820.63;5021230;28;20141;-86
2021/09/06 00:06:52;;;;;;;34.85;23.40;;;;;;;12.99;97.66;101822.28;5014934;28;20042;-79
2021/09/06 00:09:18;;;;;;;36.58;22.75;;;;;;;12.98;97.65;101820.59;5002620;28;20339;-83
2021/09/06 00:11:44;;;;;;;34.10;22.98;;;;;;;12.93;97.91;101825.59;4986951;28;20324;-82
2021/09/06 00:14:09;;;;;;;35.83;24.70;;;;;;;12.91;97.96;101817.66;5001301;28;20499;-79
2021/09/06 00:16:34;;;;;;;37.40;23.90;;;;;;;12.87;97.58;101811.72;5004848;28;20046;-84
2021/09/06 00:19:00;;;;;;;37.10;24.02;;;;;;;12.88;97.58;101812.56;5021121;28;20514;-89
2021/09/06 00:21:25;;;;;;;35.97;24.08;;;;;;;12.81;98.18;101809.66;5004066;28;20057;-82
2021/09/06 00:23:52;;;;;;;35.05;23.58;;;;;;;12.73;98.24;101806.88;5007564;28;20069;-86
2021/09/06 00:26:17;;;;;;;39.30;24.70;;;;;;;12.68;98.63;101806.50;4988372;28;20087;-85
2021/09/06 00:28:43;;;;;;;35.63;24.65;;;;;;;12.69;98.94;101808.22;5003816;28;20502;-82
2021/09/06 00:31:12;;;;;;;37.33;24.52;;;;;;;12.66;98.98;101797.75;5002464;28;20038;-84
2021/09/06 00:33:39;;;;;;;38.05;24.80;;;;;;;12.65;98.92;101801.41;5001966;28;20461;-86
2021/09/06 00:36:04;;;;;;;39.50;25.42;;;;;;;12.65;98.74;101807.63;5001804;28;20045;-79
2021/09/06 00:38:29;;;;;;;40.22;25.13;;;;;;;12.63;99.10;101808.81;4983271;28;20518;-82
2021/09/06 00:40:58;;;;;;;40.45;28.70;;;;;;;12.64;99.55;101816.72;5017415;28;20077;-85
2021/09/06 00:43:23;;;;;;;43.67;27.45;;;;;;;12.73;100.00;101824.91;4998292;28;20038;-83
2021/09/06 00:45:49;;;;;;;38.80;24.88;;;;;;;12.63;99.15;101822.28;5001302;28;20069;-82
2021/09/06 00:48:17;;;;;;;44.20;27.55;;;;;;;12.61;99.64;101818.88;4995876;28;20053;-84
2021/09/06 00:50:43;;;;;;;40.25;26.65;;;;;;;12.63;99.89;101822.28;5005029;28;20046;-85
2021/09/06 00:53:08;;;;;;;41.30;26.33;;;;;;;12.59;99.26;101829.81;4996651;28;20522;-84
2021/09/06 00:55:34;;;;;;;38.70;25.42;;;;;;;12.58;98.87;101827.28;4998170;28;21568;-83
2021/09/06 00:57:59;;;;;;;38.22;25.02;;;;;;;12.56;99.53;101827.41;4985962;28;20817;-85
2021/09/06 01:00:25;;;;;;;37.72;24.00;;;;;;;12.53;99.02;101827.72;4999049;28;20133;-80
2021/09/06 01:02:50;;;;;;;37.10;23.17;;;;;;;12.44;98.15;101820.56;5000779;28;20050;-84
2021/09/06 01:05:17;;;;;;;35.30;23.25;;;;;;;12.40;97.95;101817.31;4986252;28;20046;-89
2021/09/06 01:07:43;;;;;;;38.45;24.50;;;;;;;12.38;97.92;101816.63;4999306;28;20042;-86
2021/09/06 01:10:11;;;;;;;42.75;25.83;;;;;;;12.39;97.77;101820.16;5000374;28;20081;-79
2021/09/06 01:12:38;;;;;;;35.78;23.17;;;;;;;12.35;97.63;101822.31;4998325;28;20046;-82
2021/09/06 01:15:05;;;;;;;40.78;25.42;;;;;;;12.36;99.00;101824.00;5020777;28;20045;-89
2021/09/06 01:17:31;;;;;;;37.50;23.60;;;;;;;12.31;97.29;101826.28;5004434;28;20415;-80
2021/09/06 01:19:56;;;;;;;39.35;23.88;;;;;;;12.24;97.33;101824.38;5004947;28;20064;-84
2021/09/06 01:22:23;;;;;;;39.33;24.55;;;;;;;12.18;97.58;101823.13;5003056;28;20411;-87
2021/09/06 01:24:49;;;;;;;38.20;24.85;;;;;;;12.09;97.80;101826.72;4998662;28;20434;-85
2021/09/06 01:27:15;;;;;;;40.10;25.20;;;;;;;12.09;98.21;101826.72;5016583;28;20046;-81
2021/09/06 01:29:43;;;;;;;35.30;23.35;;;;;;;12.10;98.50;101836.47;5000223;28;20042;-83
2021/09/06 01:32:09;;;;;;;33.53;23.20;;;;;;;12.09;98.02;101830.25;4998271;28;20048;-83
2021/09/06 01:34:40;;;;;;;35.83;23.73;;;;;;;12.05;97.52;101830.69;4999892;28;20038;-84
2021/09/06 01:37:06;;;;;;;33.85;22.80;;;;;;;12.01;97.27;101829.28;4998506;28;20056;-85
2021/09/06 01:39:38;;;;;;;34.97;22.42;;;;;;;11.99;97.23;101832.13;4992947;28;20057;-89
2021/09/06 01:42:03;;;;;;;33.65;22.15;;;;;;;11.92;97.11;101831.88;5009696;28;20125;-80
2021/09/06 01:44:30;;;;;;;32.47;20.70;;;;;;;11.87;97.21;101827.94;4997267;28;20465;-80
2021/09/06 01:46:55;;;;;;;33.95;23.00;;;;;;;11.85;97.36;101828.06;5000330;28;20276;-81
2021/09/06 01:49:20;;;;;;;34.17;21.75;;;;;;;11.79;97.05;101835.84;5001959;28;20037;-81
2021/09/06 01:51:46;;;;;;;38.70;25.98;;;;;;;11.75;97.38;101838.00;5001447;28;20054;-84
2021/09/06 01:54:11;;;;;;;39.10;24.08;;;;;;;11.70;97.83;101835.72;5002108;28;20073;-84
2021/09/06 01:56:37;;;;;;;34.10;21.67;;;;;;;11.60;98.05;101831.41;5002049;28;20484;-84
2021/09/06 01:59:04;;;;;;;35.80;22.13;;;;;;;11.55;98.66;101829.13;4999933;28;20041;-82
2021/09/06 02:01:29;;;;;;;32.95;23.00;;;;;;;11.56;98.29;101827.28;5001034;28;20035;-83
2021/09/06 02:03:55;;;;;;;34.65;23.52;;;;;;;11.49;98.20;101833.25;5004669;28;20046;-85
2021/09/06 02:06:20;;;;;;;31.60;22.67;;;;;;;11.47;98.42;101826.31;5002417;28;20188;-82
2021/09/06 02:08:45;;;;;;;34.22;21.75;;;;;;;11.46;98.85;101825.47;4997683;28;20399;-84
2021/09/06 02:11:11;;;;;;;35.30;23.08;;;;;;;11.43;99.00;101831.13;5009086;28;20042;-88
2021/09/06 02:13:36;;;;;;;31.38;21.45;;;;;;;11.39;99.21;101827.03;4997241;28;20046;-84
2021/09/06 02:16:03;;;;;;;30.30;21.90;;;;;;;11.39;98.99;101826.19;4994571;28;20492;-82
2021/09/06 02:18:28;;;;;;;26.70;19.85;;;;;;;11.34;98.50;101836.53;4993437;28;20038;-84
2021/09/06 02:20:54;;;;;;;26.35;20.20;;;;;;;11.30;98.54;101831.44;4995463;28;20523;-80
2021/09/06 02:23:20;;;;;;;30.05;21.05;;;;;;;11.28;98.50;101837.97;5001837;28;20038;-83
2021/09/06 02:25:45;;;;;;;31.15;22.27;;;;;;;11.21;98.96;101836.81;5017934;28;20050;-85
2021/09/06 02:28:11;;;;;;;31.80;22.45;;;;;;;11.17;99.15;101835.44;5004005;28;20042;-83
2021/09/06 02:30:38;;;;;;;29.75;21.27;;;;;;;11.15;98.75;101840.94;5013597;28;20102;-84
2021/09/06 02:33:04;;;;;;;32.00;21.65;;;;;;;11.11;98.79;101839.53;4998622;28;20048;-82
2021/09/06 02:35:29;;;;;;;31.50;21.77;;;;;;;11.07;99.00;101836.25;4995967;28;20262;-88
2021/09/06 02:37:54;;;;;;;34.10;23.25;;;;;;;11.07;98.83;101835.41;4994588;28;20033;-86
2021/09/06 02:40:21;;;;;;;33.63;22.63;;;;;;;11.05;99.04;101837.41;4998355;28;20107;-85
2021/09/06 02:42:46;;;;;;;35.42;23.40;;;;;;;11.02;99.74;101838.53;4995058;28;20046;-85
2021/09/06 02:45:12;;;;;;;37.83;24.85;;;;;;;11.00;99.55;101843.19;4997977;28;20501;-87
2021/09/06 02:47:37;;;;;;;36.65;23.73;;;;;;;11.02;100.00;101835.84;4997988;28;20077;-85
2021/09/06 02:50:04;;;;;;;33.80;22.80;;;;;;;10.95;100.00;101837.41;4996286;28;20045;-83
2021/09/06 02:52:31;;;;;;;35.80;24.20;;;;;;;10.92;100.00;101845.75;5002374;28;20034;-85
2021/09/06 02:54:56;;;;;;;33.25;23.00;;;;;;;10.91;100.00;101846.75;4997710;28;20069;-83
2021/09/06 02:57:21;;;;;;;35.28;23.15;;;;;;;10.87;100.00;101849.84;4994478;28;20070;-83
2021/09/06 02:59:47;;;;;;;30.58;21.02;;;;;;;10.80;100.00;101836.13;4997386;28;20121;-83
2021/09/06 03:02:12;;;;;;;27.85;19.27;;;;;;;10.75;99.63;101838.38;4976386;28;20235;-81
2021/09/06 03:04:39;;;;;;;25.35;18.98;;;;;;;10.66;99.71;101837.38;4992834;28;20053;-80
2021/09/06 03:07:04;;;;;;;24.33;18.50;;;;;;;10.70;100.00;101837.94;4995867;28;20054;-84
2021/09/06 03:09:30;;;;;;;25.90;19.98;;;;;;;10.71;100.00;101835.13;4998856;28;20045;-86
2021/09/06 03:11:55;;;;;;;28.35;19.95;;;;;;;10.69;100.00;101836.25;4995915;28;20045;-89
2021/09/06 03:14:20;;;;;;;27.00;18.35;;;;;;;10.65;99.59;101837.53;4989903;28;20399;-83
2021/09/06 03:16:46;;;;;;;26.00;18.80;;;;;;;10.56;99.87;101836.53;4997094;28;20045;-80
2021/09/06 03:19:12;;;;;;;26.63;19.10;;;;;;;10.56;100.00;101834.69;5000591;28;20052;-86
2021/09/06 03:21:37;;;;;;;25.10;18.83;;;;;;;10.52;99.66;101833.25;4997511;28;20073;-78
2021/09/06 03:24:04;;;;;;;24.73;18.20;;;;;;;10.48;99.69;101829.16;5001888;28;20487;-85
2021/09/06 03:26:29;;;;;;;25.40;18.30;;;;;;;10.50;99.58;101831.69;4998803;28;20125;-85
2021/09/06 03:28:54;;;;;;;25.90;19.10;;;;;;;10.45;99.55;101837.50;5001785;28;20046;-84
2021/09/06 03:31:21;;;;;;;25.95;17.75;;;;;;;10.37;99.92;101835.50;5019422;28;20041;-80
2021/09/06 03:33:47;;;;;;;27.08;18.20;;;;;;;10.39;99.89;101830.00;5017074;28;20052;-82
2021/09/06 03:36:13;;;;;;;23.52;17.88;;;;;;;10.35;99.73;101829.41;5004203;28;20256;-82
2021/09/06 03:38:40;;;;;;;25.50;17.92;;;;;;;10.36;99.69;101827.59;5006461;28;20506;-88
2021/09/06 03:41:07;;;;;;;24.33;17.50;;;;;;;10.27;99.49;101821.22;5007308;28;20045;-84
2021/09/06 03:43:32;;;;;;;23.17;16.83;;;;;;;10.22;99.46;101827.94;5014756;28;20054;-85
2021/09/06 03:45:58;;;;;;;22.15;16.38;;;;;;;10.18;99.45;101824.66;4999055;28;20569;-80
2021/09/06 03:48:23;;;;;;;22.10;16.63;;;;;;;10.12;99.87;101822.53;5003133;28;20053;-83
2021/09/06 03:50:49;;;;;;;21.77;16.40;;;;;;;10.12;99.68;101822.53;5003203;28;20095;-85
2021/09/06 03:53:15;;;;;;;21.27;16.92;;;;;;;10.11;99.55;101824.38;5016144;28;20092;-84
2021/09/06 03:55:40;;;;;;;23.67;17.40;;;;;;;10.07;99.56;101831.00;4998411;28;20085;-84
2021/09/06 03:58:06;;;;;;;27.40;17.55;;;;;;;10.07;99.59;101825.66;5006668;28;20060;-85
2021/09/06 04:00:31;;;;;;;25.67;17.25;;;;;;;10.02;100.00;101822.50;5003417;28;20041;-80
2021/09/06 04:03:01;;;;;;;26.13;18.73;;;;;;;10.01;100.00;101828.00;5014532;28;20054;-78
2021/09/06 04:05:26;;;;;;;;;;;;;;;10.01;99.93;101825.31;5006557;28;20117;-79
2021/09/06 04:07:51;;;;;;;37.10;21.58;;;;;;;9.91;100.00;101828.81;5008692;28;20005;-85
2021/09/06 04:10:16;;;;;;;34.58;22.85;;;;;;;9.94;100.00;101825.00;5009873;28;20045;-80
2021/09/06 04:12:42;;;;;;;33.25;22.65;;;;;;;9.96;100.00;101825.72;5003916;28;20042;-85
2021/09/06 04:15:09;;;;;;;37.20;24.20;;;;;;;9.96;100.00;101822.22;5007256;28;20439;-81
2021/09/06 04:17:36;;;;;;;39.17;24.77;;;;;;;9.96;100.00;101835.63;5007246;28;20066;-79
2021/09/06 04:20:05;;;;;;;39.33;25.52;;;;;;;9.98;100.00;101828.25;5005850;28;20042;-82
2021/09/06 04:22:32;;;;;;;42.72;25.55;;;;;;;9.98;100.00;101839.84;4979483;28;20066;-84
2021/09/06 04:25:00;;;;;;;43.00;26.48;;;;;;;9.95;100.00;101834.75;5002396;28;20247;-83
2021/09/06 04:27:26;;;;;;;47.72;28.35;;;;;;;9.95;100.00;101834.75;4998991;28;20088;-82
2021/09/06 04:29:51;;;;;;;51.28;28.45;;;;;;;9.91;100.00;101844.06;5001891;28;20037;-81
2021/09/06 04:32:17;;;;;;;50.28;27.75;;;;;;;9.86;100.00;101839.06;5009060;28;20034;-79
2021/09/06 04:34:42;;;;;;;43.65;26.48;;;;;;;9.86;100.00;101844.44;5003268;28;20054;-78
2021/09/06 04:37:08;;;;;;;44.28;27.30;;;;;;;9.84;100.00;101842.88;5002043;28;20141;-82
2021/09/06 04:39:33;;;;;;;40.15;24.60;;;;;;;9.81;100.00;101845.81;5007587;28;20450;-86
2021/09/06 04:41:58;;;;;;;51.25;27.33;;;;;;;9.76;100.00;101848.09;4980743;28;20045;-83
2021/09/06 04:44:24;;;;;;;40.70;24.92;;;;;;;9.73;100.00;101846.50;5006255;28;20132;-88
2021/09/06 04:46:49;;;;;;;41.38;24.50;;;;;;;9.66;100.00;101848.84;4999134;28;20058;-83
2021/09/06 04:49:16;;;;;;;36.03;24.52;;;;;;;9.68;100.00;101857.63;5003503;28;20053;-85
2021/09/06 04:51:42;;;;;;;33.63;23.02;;;;;;;9.69;100.00;101863.81;5003941;28;20041;-80
2021/09/06 04:54:07;;;;;;;34.78;22.27;;;;;;;9.67;100.00;101866.66;5002433;28;20052;-83
2021/09/06 04:56:33;;;;;;;35.45;22.88;;;;;;;9.64;100.00;101868.75;5014469;28;20065;-88
2021/09/06 04:58:58;;;;;;;36.90;22.80;;;;;;;9.62;100.00;101874.22;5001843;28;20038;-79
2021/09/06 05:01:23;;;;;;;36.25;23.10;;;;;;;9.65;100.00;101876.66;5000716;28;20112;-84
2021/09/06 05:03:49;;;;;;;34.70;22.40;;;;;;;9.57;100.00;101864.88;5010050;28;20054;-83
2021/09/06 05:06:14;;;;;;;31.35;23.70;;;;;;;9.54;100.00;101866.00;5001984;28;20041;-79
2021/09/06 05:08:46;;;;;;;29.00;22.42;;;;;;;9.48;100.00;101871.88;5006188;28;20447;-81
2021/09/06 05:11:13;;;;;;;31.08;23.73;;;;;;;9.53;100.00;101875.03;4999417;28;20048;-77
2021/09/06 05:13:39;;;;;;;33.22;21.23;;;;;;;9.48;100.00;101866.53;4999129;28;20111;-87
2021/09/06 05:16:04;;;;;;;29.58;22.25;;;;;;;9.46;100.00;101868.47;4994488;28;20349;-81
2021/09/06 05:18:30;;;;;;;31.98;22.33;;;;;;;9.45;100.00;101875.66;4988436;28;20107;-81
2021/09/06 05:20:56;;;;;;;29.50;21.27;;;;;;;9.42;100.00;101877.78;4990641;28;20573;-83
2021/09/06 05:23:25;;;;;;;33.00;22.77;;;;;;;9.42;100.00;101877.78;5003694;28;20455;-77
2021/09/06 05:25:50;;;;;;;;;;;;;;;9.49;100.00;101882.50;5023927;28;20092;-83
2021/09/06 05:28:16;;;;;;;30.55;21.80;;;;;;;9.43;100.00;101884.81;5004860;28;19917;-84
2021/09/06 05:30:47;;;;;;;31.20;22.52;;;;;;;9.46;100.00;101887.22;5003363;28;20209;-84
2021/09/06 05:33:13;;;;;;;28.60;20.77;;;;;;;9.49;100.00;101884.28;5006222;28;20038;-88
2021/09/06 05:35:40;;;;;;;26.48;20.63;;;;;;;9.46;100.00;101884.56;4999986;28;20093;-82
2021/09/06 05:38:08;;;;;;;29.75;20.50;;;;;;;9.48;100.00;101887.97;5002837;28;20618;-83
2021/09/06 05:40:36;;;;;;;28.25;20.38;;;;;;;9.51;100.00;101882.34;4999543;28;20044;-86
2021/09/06 05:43:07;;;;;;;27.92;21.05;;;;;;;9.55;100.00;101888.28;5006923;28;20125;-81
2021/09/06 05:45:34;;;;;;;27.60;20.58;;;;;;;9.57;100.00;101892.53;5016289;28;20121;-81
2021/09/06 05:47:59;;;;;;;27.27;20.98;;;;;;;9.61;100.00;101893.97;5001255;28;20034;-83
2021/09/06 05:50:26;;;;;;;30.88;21.38;;;;;;;9.66;100.00;101897.09;4999284;28;20089;-86
2021/09/06 05:52:52;;;;;;;27.98;21.38;;;;;;;9.79;100.00;101906.78;4998804;28;20268;-88
2021/09/06 05:55:20;;;;;;;30.55;22.35;;;;;;;9.90;100.00;101915.59;5015016;28;20096;-81
2021/09/06 05:57:45;;;;;;;32.67;23.08;;;;;;;10.00;100.00;101921.00;4999014;28;20046;-83
2021/09/06 06:00:11;;;;;;;28.80;21.75;;;;;;;10.03;100.00;101920.75;5014882;28;20491;-84
2021/09/06 06:02:36;;;;;;;32.28;21.10;;;;;;;10.09;100.00;101925.56;5005623;28;20400;-81
2021/09/06 06:05:04;;;;;;;30.85;22.13;;;;;;;10.15;100.00;101927.72;5000306;28;20530;-77
2021/09/06 06:07:36;;;;;;;33.30;22.08;;;;;;;10.25;100.00;101929.59;4994066;28;20049;-83
2021/09/06 06:10:03;;;;;;;36.45;24.35;;;;;;;10.38;100.00;101930.25;5002002;28;20034;-79
2021/09/06 06:12:30;;;;;;;32.20;22.00;;;;;;;10.41;100.00;101929.97;5003936;28;20450;-85
2021/09/06 06:14:56;;;;;;;35.83;23.05;;;;;;;10.40;100.00;101925.59;5004850;28;20042;-82
2021/09/06 06:17:24;;;;;;;35.70;23.05;;;;;;;10.43;100.00;101928.00;4997561;28;20040;-85
2021/09/06 06:19:50;;;;;;;33.90;23.45;;;;;;;10.52;100.00;101920.97;4996917;28;20140;-78
2021/09/06 06:22:16;;;;;;;31.27;21.58;;;;;;;10.59;100.00;101916.78;5002127;28;20042;-81
2021/09/06 06:24:43;;;;;;;33.08;23.23;;;;;;;10.65;100.00;101921.59;5004898;28;20085;-84
2021/09/06 06:27:08;;;;;;;33.80;23.08;;;;;;;10.72;100.00;101919.19;5003451;28;20057;-85
2021/09/06 06:29:34;;;;;;;39.70;25.08;;;;;;;10.80;100.00;101922.91;5022353;28;20046;-81
2021/09/06 06:32:00;;;;;;;39.55;24.23;;;;;;;10.88;100.00;101916.00;4997953;28;20046;-86
2021/09/06 06:34:26;;;;;;;38.53;27.55;;;;;;;10.99;100.00;101916.72;5008136;28;20509;-80
2021/09/06 06:36:51;;;;;;;38.80;28.27;;;;;;;11.02;100.00;101921.81;5008323;28;20133;-79
2021/09/06 06:39:18;;;;;;;38.53;27.50;;;;;;;11.15;100.00;101912.63;5009568;28;20049;-82
2021/09/06 06:41:45;;;;;;;35.38;25.38;;;;;;;11.23;100.00;101915.47;5012045;28;20498;-83
2021/09/06 06:44:10;;;;;;;39.88;26.63;;;;;;;11.30;100.00;101916.56;5005522;28;20391;-81
2021/09/06 06:46:35;;;;;;;38.13;26.60;;;;;;;11.40;100.00;101920.13;5008031;28;20042;-81
2021/09/06 06:49:01;;;;;;;40.30;28.13;;;;;;;11.52;100.00;101921.66;5005202;28;20072;-84
2021/09/06 06:51:26;;;;;;;41.28;28.10;;;;;;;11.61;100.00;101916.41;5011409;28;20061;-87
2021/09/06 06:53:52;;;;;;;40.80;29.58;;;;;;;11.69;100.00;101920.09;5033765;28;20038;-84
2021/09/06 06:56:17;;;;;;;43.63;27.63;;;;;;;11.79;100.00;101921.91;5008150;28;20070;-86
2021/09/06 06:58:42;;;;;;;43.35;29.05;;;;;;;11.87;100.00;101922.06;5009769;28;20045;-82
2021/09/06 07:01:08;;;;;;;40.00;27.98;;;;;;;11.98;100.00;101929.13;5009687;28;20049;-86
2021/09/06 07:03:33;;;;;;;40.65;28.25;;;;;;;12.09;100.00;101934.34;5026594;28;20152;-83
2021/09/06 07:05:59;;;;;;;40.35;28.33;;;;;;;12.17;100.00;101940.69;5015888;28;20034;-84
2021/09/06 07:08:24;;;;;;;44.30;28.38;;;;;;;12.27;98.80;101943.31;5011184;28;20042;-83
2021/09/06 07:10:49;;;;;;;41.20;26.77;;;;;;;12.41;100.00;101940.16;5010101;28;20100;-85
2021/09/06 07:13:15;;;;;;;42.10;27.45;;;;;;;12.50;100.00;101942.94;5009793;28;20123;-78
2021/09/06 07:15:40;;;;;;;38.95;27.52;;;;;;;12.68;98.27;101943.84;5010162;28;20042;-83
2021/09/06 07:18:08;;;;;;;37.88;25.55;;;;;;;12.83;98.68;101945.03;5011991;28;20483;-80
2021/09/06 07:20:34;;;;;;;39.78;27.17;;;;;;;12.92;98.09;101953.19;4992979;28;20120;-86
2021/09/06 07:22:59;;;;;;;37.25;25.80;;;;;;;13.07;99.51;101957.09;5009201;28;20100;-85
2021/09/06 07:25:25;;;;;;;34.97;24.38;;;;;;;13.21;100.00;101953.88;5005500;28;20046;-82
2021/09/06 07:27:50;;;;;;;35.22;24.90;;;;;;;13.39;100.00;101947.66;5003435;28;20056;-80
2021/09/06 07:30:16;;;;;;;38.20;26.27;;;;;;;13.52;99.83;101953.47;5012847;28;20037;-82
2021/09/06 07:32:41;;;;;;;38.22;25.38;;;;;;;13.64;99.64;101943.34;5006788;28;20030;-80
2021/09/06 07:35:07;;;;;;;37.90;25.38;;;;;;;13.80;99.35;101950.69;5010583;28;20046;-89
2021/09/06 07:37:32;;;;;;;38.75;26.05;;;;;;;13.84;96.97;101952.94;5008949;28;20046;-84
2021/09/06 07:39:58;;;;;;;37.25;24.60;;;;;;;13.99;97.62;101947.78;5009367;28;20046;-82
2021/09/06 07:42:24;;;;;;;36.63;24.65;;;;;;;14.07;98.83;101950.56;5000389;28;20033;-86
2021/09/06 07:44:49;;;;;;;33.95;24.50;;;;;;;14.14;98.51;101951.59;5010256;28;20400;-80
2021/09/06 07:47:15;;;;;;;39.97;24.92;;;;;;;14.29;97.81;101953.69;5007375;28;20042;-84
2021/09/06 07:49:41;;;;;;;38.45;26.33;;;;;;;14.37;95.84;101962.69;5009624;28;20445;-80
2021/09/06 07:52:08;;;;;;;37.67;24.42;;;;;;;14.55;95.59;101957.22;5009533;28;20037;-81
2021/09/06 07:54:33;;;;;;;36.47;25.25;;;;;;;14.69;95.06;101963.03;5010291;28;20045;-80
2021/09/06 07:56:59;;;;;;;33.22;23.67;;;;;;;14.73;96.66;101967.09;5007784;28;20041;-83
2021/09/06 07:59:24;;;;;;;35.15;24.42;;;;;;;14.83;94.14;101974.06;5008606;28;20140;-85
2021/09/06 08:01:49;;;;;;;32.85;23.65;;;;;;;14.97;95.44;101974.47;5007027;28;20042;-81
2021/09/06 08:04:15;;;;;;;32.92;21.65;;;;;;;15.14;95.51;101972.66;5000846;28;20029;-84
2021/09/06 08:06:40;;;;;;;30.63;20.85;;;;;;;15.28;94.30;101980.97;5008400;28;20124;-84
2021/09/06 08:09:06;;;;;;;31.48;21.27;;;;;;;15.46;91.78;101982.66;5004614;28;20387;-82
2021/09/06 08:11:32;;;;;;;29.23;19.88;;;;;;;15.64;91.83;101982.50;5003829;28;20128;-80
2021/09/06 08:13:58;;;;;;;32.30;21.40;;;;;;;15.73;88.03;101985.06;5004585;28;20091;-82
2021/09/06 08:16:24;;;;;;;30.02;18.73;;;;;;;15.87;87.39;101990.81;5006681;28;20030;-81
2021/09/06 08:18:50;;;;;;;28.60;19.00;;;;;;;16.00;87.91;101988.47;5008227;28;20046;-82
2021/09/06 08:21:15;;;;;;;27.65;18.60;;;;;;;16.10;88.52;101991.81;4994452;28;20042;-80
2021/09/06 08:23:40;;;;;;;29.77;19.77;;;;;;;16.20;87.61;101988.94;5022297;28;20179;-82
2021/09/06 08:26:06;;;;;;;30.40;19.00;;;;;;;16.38;89.04;101986.00;5022475;28;20394;-84
2021/09/06 08:28:35;;;;;;;26.73;18.75;;;;;;;16.49;85.93;101993.78;4997895;28;20068;-77
2021/09/06 08:31:00;;;;;;;27.00;19.15;;;;;;;16.59;86.43;101993.56;5010181;28;20034;-79
2021/09/06 08:33:26;;;;;;;26.30;17.67;;;;;;;16.67;84.62;101985.41;5025371;28;20041;-82
2021/09/06 08:35:51;;;;;;;26.75;17.80;;;;;;;16.84;83.85;101997.91;5009184;28;20479;-85
2021/09/06 08:38:18;;;;;;;25.30;17.98;;;;;;;16.91;85.29;101988.03;5010226;28;20069;-78
2021/09/06 08:40:44;;;;;;;26.48;17.60;;;;;;;17.02;84.46;101997.63;5009541;28;20029;-82
2021/09/06 08:43:09;;;;;;;28.75;18.58;;;;;;;17.16;82.38;101998.75;5009426;28;20061;-84
2021/09/06 08:45:36;;;;;;;28.83;18.77;;;;;;;17.28;82.71;101991.88;4992505;28;20042;-84
2021/09/06 08:48:02;;;;;;;25.10;18.80;;;;;;;17.36;81.99;101994.56;5004099;28;20479;-78
2021/09/06 08:50:31;;;;;;;25.73;18.38;;;;;;;17.40;83.23;101992.31;4974953;28;20066;-84
2021/09/06 08:53:00;;;;;;;25.17;17.67;;;;;;;17.53;81.76;101986.31;4982256;28;20049;-83
2021/09/06 08:55:27;;;;;;;27.45;17.60;;;;;;;17.66;81.88;101988.41;4971113;28;20398;-84
2021/09/06 08:57:54;;;;;;;25.23;17.80;;;;;;;17.72;82.32;101999.38;4995039;28;20242;-87
2021/09/06 09:00:31;;;;;;;28.77;18.75;;;;;;;17.86;81.98;102002.34;5000014;28;20129;-85
2021/09/06 09:02:57;;;;;;;27.95;18.13;;;;;;;17.96;80.82;102005.66;4997848;28;20046;-86
2021/09/06 09:05:28;;;;;;;25.05;16.95;;;;;;;18.16;81.62;102001.38;4984211;28;20048;-83
2021/09/06 09:07:58;;;;;;;26.50;17.42;;;;;;;18.17;80.48;101999.50;4963425;28;20517;-84
2021/09/06 09:10:30;;;;;;;26.00;16.95;;;;;;;18.26;80.52;102006.53;4959130;28;20054;-81
2021/09/06 09:13:06;;;;;;;24.92;16.58;;;;;;;18.35;79.90;102005.41;4985354;28;20042;-88
2021/09/06 09:15:33;;;;;;;26.83;18.20;;;;;;;18.39;79.74;102008.63;4965923;28;20129;-86
2021/09/06 09:17:58;;;;;;;24.85;16.65;;;;;;;18.50;79.04;102005.47;5000468;28;20046;-85
2021/09/06 09:20:36;;;;;;;26.83;16.45;;;;;;;18.63;77.31;102012.94;5005565;28;20108;-82
2021/09/06 09:23:06;;;;;;;22.52;15.32;;;;;;;18.65;77.37;102009.00;5010468;28;20042;-82
2021/09/06 09:25:31;;;;;;;22.42;16.77;;;;;;;18.71;78.02;102013.69;5008750;28;20375;-84
2021/09/06 09:27:57;;;;;;;22.85;16.17;;;;;;;18.78;78.14;102007.53;5008999;28;20048;-81
2021/09/06 09:30:32;;;;;;;24.35;16.20;;;;;;;18.80;77.27;102010.91;5007947;28;20038;-84
2021/09/06 09:33:04;;;;;;;22.95;16.30;;;;;;;18.79;76.60;102004.63;5008310;28;20049;-81
2021/09/06 09:35:31;;;;;;;23.27;15.77;;;;;;;18.77;76.09;102003.13;5024552;28;20390;-80
2021/09/06 09:38:05;;;;;;;22.00;15.48;;;;;;;18.86;76.01;102002.81;5007211;28;20041;-83
2021/09/06 09:40:39;;;;;;;19.60;14.13;;;;;;;19.00;77.36;102000.28;5008613;28;20034;-85
2021/09/06 09:43:05;;;;;;;19.65;13.77;;;;;;;19.05;76.72;102001.41;5022583;28;20045;-84
2021/09/06 09:45:31;;;;;;;18.00;12.55;;;;;;;19.17;75.66;101993.56;5023148;28;20368;-81
2021/09/06 09:47:59;;;;;;;20.73;14.07;;;;;;;19.28;75.23;101992.25;5024101;28;20042;-86
2021/09/06 09:50:26;;;;;;;24.92;15.43;;;;;;;19.39;75.66;101995.28;5003988;28;20395;-83
2021/09/06 09:52:53;;;;;;;22.65;14.48;;;;;;;19.43;74.73;101997.63;5005447;28;20119;-88
2021/09/06 09:55:20;;;;;;;21.58;15.18;;;;;;;19.48;74.01;101986.97;5005299;28;20103;-85
2021/09/06 09:57:45;;;;;;;20.58;13.85;;;;;;;19.53;74.89;101982.63;5023038;28;20495;-87
2021/09/06 10:00:13;;;;;;;18.10;12.57;;;;;;;19.71;75.40;101982.22;5009323;28;20049;-81
2021/09/06 10:02:43;;;;;;;16.88;10.45;;;;;;;19.89;71.20;101995.34;5006442;28;20290;-82
2021/09/06 10:05:09;;;;;;;18.83;11.93;;;;;;;20.01;70.08;101993.78;5013391;28;20038;-88
2021/09/06 10:07:39;;;;;;;16.52;10.85;;;;;;;20.03;70.08;101986.25;5004180;28;20091;-84
2021/09/06 10:10:18;;;;;;;17.48;11.23;;;;;;;19.98;71.33;101983.28;5007223;28;20049;-85
2021/09/06 10:12:48;;;;;;;17.52;12.13;;;;;;;19.97;70.32;101987.06;5005973;28;20088;-84
2021/09/06 10:15:14;;;;;;;16.15;12.20;;;;;;;20.20;72.71;101985.97;5006310;28;20403;-86
2021/09/06 10:17:48;;;;;;;14.98;11.25;;;;;;;20.36;69.17;101982.91;5005068;28;20046;-79
2021/09/06 10:20:30;;;;;;;16.15;10.82;;;;;;;20.48;70.17;101992.22;4995376;28;20049;-84
2021/09/06 10:23:09;;;;;;;16.30;10.25;;;;;;;20.55;68.46;101996.91;5005563;28;20112;-81
2021/09/06 10:25:37;;;;;;;16.42;12.10;;;;;;;20.55;69.00;101994.19;5017866;28;20038;-87
2021/09/06 10:28:05;;;;;;;15.85;11.85;;;;;;;20.49;68.84;102002.06;5003097;28;20471;-84
2021/09/06 10:30:37;;;;;;;18.75;11.90;;;;;;;20.51;69.31;101999.13;4965464;28;20038;-81
2021/09/06 10:33:05;;;;;;;19.83;12.65;;;;;;;20.61;69.03;101987.91;5003138;28;20042;-81
2021/09/06 10:35:32;;;;;;;16.23;11.50;;;;;;;20.78;67.84;101993.88;4995397;28;20060;-85
2021/09/06 10:38:00;;;;;;;15.68;10.50;;;;;;;20.84;67.19;101987.59;5003970;28;20518;-78
2021/09/06 10:40:29;;;;;;;15.93;11.55;;;;;;;20.78;66.72;101989.25;5000571;28;20037;-86
2021/09/06 10:42:54;;;;;;;15.48;11.30;;;;;;;20.91;67.72;101991.19;5002378;28;20060;-88
2021/09/06 10:45:20;;;;;;;17.25;11.80;;;;;;;20.97;67.43;101993.09;5002125;28;20451;-87
2021/09/06 10:48:01;;;;;;;16.35;11.55;;;;;;;21.05;66.75;101978.44;5002824;28;20394;-82
2021/09/06 10:50:27;;;;;;;17.55;12.18;;;;;;;21.05;66.44;101978.44;5002457;28;20395;-81
2021/09/06 10:52:53;;;;;;;15.55;11.30;;;;;;;20.99;66.49;101991.00;5002318;28;20096;-81
2021/09/06 10:55:20;;;;;;;18.17;12.18;;;;;;;20.95;66.47;101990.59;5002662;28;20038;-89
2021/09/06 10:57:48;;;;;;;18.83;12.23;;;;;;;21.03;66.54;101975.94;4999833;28;20046;-81
2021/09/06 11:00:16;;;;;;;17.13;11.43;;;;;;;21.17;67.58;101984.97;5003118;28;20045;-82
2021/09/06 11:02:42;;;;;;;17.42;10.45;;;;;;;21.34;66.13;101990.91;5001601;28;20038;-85
2021/09/06 11:05:15;;;;;;;18.58;10.73;;;;;;;21.43;64.61;101995.16;5000623;28;20243;-82
2021/09/06 11:07:41;;;;;;;13.40;10.00;;;;;;;21.48;63.51;101991.81;5001723;28;20042;-84